KFFO/FFO METAR and TAF weather

Enter ICAO airport designator
Station Type Date Time Source
KFFO METAR 2021/09/28 15:56 UTC NOAA

KFFO 281556Z AUTO 00000KT 10SM CLR 24/15 A2997 RMK AO2 SLP146 T02360151


Station Type Date Time Source
KFFO Decoded METAR 2021/09/28 15:56 UTC NOAA

Dayton / Wright-Patterson Air Force Base, OH, United States (KFFO) 39-50N 084-03W 251M
Sep 28, 2021 - 11:56 AM EDT / 2021.09.28 1556 UTC
Wind: Calm:0
Visibility: 10 mile(s):0
Sky conditions: clear
Temperature: 74.5 F (23.6 C)
Dew Point: 59.2 F (15.1 C)
Relative Humidity: 58%
Pressure (altimeter): 29.97 in. Hg (1014 hPa)
ob: KFFO 281556Z AUTO 00000KT 10SM CLR 24/15 A2997 RMK AO2 SLP146 T02360151
cycle: 16

Station Type Date Time Source
KFFO TAF 2021/09/28 11:12 UTC NOAA

TAF KFFO 281100Z 2811/2917 24006KT 9999 SCT080 QNH2990INS
BECMG 2814/2815 VRB06KT 9999 SCT025 QNH2994INS
BECMG 2818/2819 03009KT 9999 BKN030 QNH2993INS
BECMG 2901/2902 VRB06KT 9999 SKC QNH2997INS
BECMG 2913/2914 09006KT 9999 SCT025 QNH3004INS TX26/2820Z TN12/2911Z

Example: see airport list